Time;durP1;ratioP1;P1;durP2;ratioP2;P2;SDS_P1;SDS_P2;PMS_P1;PMS_P2;Temp;Humidity;BMP_temperature;BMP_pressure;BME280_temperature;BME280_humidity;BME280_pressure;Samples;Min_cycle;Max_cycle;Signal;HPM_P1;HPM_P2
2022/08/30 00:03:26;;;;;;;9.83;9.03;;;18.00;99.90;;;;;;4961231;28;20201;-85
2022/08/30 00:05:52;;;;;;;9.23;8.53;;;18.00;99.90;;;;;;4963847;28;20776;-85
2022/08/30 00:08:18;;;;;;;9.73;8.83;;;18.10;99.90;;;;;;4964119;28;20337;-85
2022/08/30 00:10:44;;;;;;;9.97;8.97;;;18.10;99.90;;;;;;4963467;28;20445;-86
2022/08/30 00:13:11;;;;;;;9.30;8.50;;;18.00;99.90;;;;;;4970101;28;20274;-85
2022/08/30 00:15:38;;;;;;;9.53;8.57;;;18.00;99.90;;;;;;4996577;28;20444;-86
2022/08/30 00:18:04;;;;;;;10.93;9.97;;;17.80;99.90;;;;;;4968013;28;20449;-85
2022/08/30 00:20:32;;;;;;;10.97;9.87;;;17.60;99.90;;;;;;4964337;28;20440;-86
2022/08/30 00:22:57;;;;;;;10.57;9.67;;;17.50;99.90;;;;;;4972544;28;20442;-85
2022/08/30 00:25:26;;;;;;;10.30;9.40;;;17.50;99.90;;;;;;4967757;28;20824;-86
2022/08/30 00:27:52;;;;;;;10.27;9.27;;;17.50;99.90;;;;;;4960895;28;20530;-85
2022/08/30 00:30:19;;;;;;;11.57;10.37;;;17.50;99.90;;;;;;4964204;28;20489;-85
2022/08/30 00:32:44;;;;;;;10.60;9.70;;;17.60;99.90;;;;;;4972979;28;20222;-85
2022/08/30 00:35:12;;;;;;;10.37;9.47;;;17.70;99.90;;;;;;4956036;28;20456;-86
2022/08/30 00:37:39;;;;;;;10.10;9.20;;;17.70;99.90;;;;;;4974078;28;20191;-85
2022/08/30 00:40:08;;;;;;;10.80;9.80;;;17.70;99.90;;;;;;4963908;28;20444;-86
2022/08/30 00:42:34;;;;;;;10.10;9.30;;;17.70;99.90;;;;;;4961458;28;20448;-86
2022/08/30 00:45:00;;;;;;;10.90;9.83;;;17.70;99.90;;;;;;4976932;28;20441;-86
2022/08/30 00:47:26;;;;;;;10.30;9.40;;;17.60;99.90;;;;;;4978091;28;20455;-84
2022/08/30 00:49:55;;;;;;;10.13;9.20;;;17.60;99.90;;;;;;4965648;28;20441;-84
2022/08/30 00:52:22;;;;;;;10.70;8.70;;;17.50;99.90;;;;;;4977725;28;24149;-84
2022/08/30 00:54:50;;;;;;;11.70;9.30;;;17.60;99.90;;;;;;4963532;28;20471;-84
2022/08/30 00:57:17;;;;;;;9.70;8.87;;;17.60;99.90;;;;;;4961066;28;21636;-84
2022/08/30 00:59:47;;;;;;;10.03;9.23;;;17.60;99.90;;;;;;4976477;28;20887;-85
2022/08/30 01:02:13;;;;;;;10.90;10.00;;;17.40;99.90;;;;;;4962724;28;20798;-85
2022/08/30 01:04:41;;;;;;;9.67;8.87;;;17.30;99.90;;;;;;4965360;28;20712;-85
2022/08/30 01:07:07;;;;;;;11.13;10.00;;;17.30;99.90;;;;;;4977331;28;20859;-84
2022/08/30 01:09:33;;;;;;;10.60;9.53;;;17.30;99.90;;;;;;4973960;28;20863;-84
2022/08/30 01:11:59;;;;;;;9.63;8.80;;;17.30;99.90;;;;;;4961486;28;20472;-85
2022/08/30 01:14:25;;;;;;;9.70;8.90;;;17.20;99.90;;;;;;4971314;28;20511;-85
2022/08/30 01:16:50;;;;;;;9.70;8.90;;;17.20;99.90;;;;;;4975693;28;20460;-85
2022/08/30 01:19:51;;;;;;;9.53;8.63;;;17.20;99.90;;;;;;4967674;28;20815;-83
2022/08/30 01:22:35;;;;;;;10.07;9.17;;;17.20;99.90;;;;;;4958729;28;20184;-84
2022/08/30 01:25:02;;;;;;;11.03;9.93;;;17.20;99.90;;;;;;4964488;28;20444;-84
2022/08/30 01:27:29;;;;;;;10.10;9.30;;;17.20;99.90;;;;;;4962026;28;20815;-84
2022/08/30 01:29:56;;;;;;;10.30;9.30;;;17.20;99.90;;;;;;4975423;28;20448;-84
2022/08/30 01:32:25;;;;;;;12.57;11.57;;;17.30;99.90;;;;;;4964286;28;20472;-85
2022/08/30 01:34:51;;;;;;;12.10;11.00;;;17.30;99.90;;;;;;4973057;28;20877;-84
2022/08/30 01:37:22;;;;;;;11.97;10.73;;;17.30;99.90;;;;;;4956593;28;20445;-84
2022/08/30 01:39:48;;;;;;;11.90;10.90;;;17.30;99.90;;;;;;4971989;28;20186;-85
2022/08/30 01:42:16;;;;;;;11.87;10.83;;;17.30;99.90;;;;;;4969031;28;21065;-84
2022/08/30 01:44:43;;;;;;;10.13;9.23;;;17.30;99.90;;;;;;4974830;28;20624;-84
2022/08/30 01:47:09;;;;;;;10.53;9.50;;;17.30;99.90;;;;;;4990361;28;20455;-85
2022/08/30 01:49:35;;;;;;;11.37;10.40;;;17.20;99.90;;;;;;4964859;28;20488;-84
2022/08/30 01:52:01;;;;;;;10.70;9.70;;;17.10;99.90;;;;;;4963646;28;20555;-84
2022/08/30 01:54:27;;;;;;;10.37;9.57;;;17.00;99.90;;;;;;4956727;28;20603;-85
2022/08/30 01:56:52;;;;;;;10.10;9.20;;;16.90;99.90;;;;;;4959753;28;20189;-85
2022/08/30 01:59:18;;;;;;;9.33;8.60;;;16.90;99.90;;;;;;4962177;28;21281;-85
2022/08/30 02:01:43;;;;;;;10.60;9.70;;;16.80;99.90;;;;;;4966282;28;20185;-85
2022/08/30 02:04:11;;;;;;;12.70;11.50;;;16.80;99.90;;;;;;4964705;28;20192;-84
2022/08/30 02:06:37;;;;;;;10.80;9.80;;;16.80;99.90;;;;;;4960659;28;20188;-84
2022/08/30 02:09:03;;;;;;;11.57;10.57;;;16.70;99.90;;;;;;4971242;28;21284;-84
2022/08/30 02:11:29;;;;;;;10.73;9.73;;;16.70;99.90;;;;;;4974917;28;20437;-85
2022/08/30 02:13:55;;;;;;;11.70;9.80;;;16.70;99.90;;;;;;4966681;28;20240;-85
2022/08/30 02:16:22;;;;;;;9.03;8.30;;;16.60;99.90;;;;;;4974450;28;20535;-85
2022/08/30 02:18:48;;;;;;;10.77;9.80;;;16.50;99.90;;;;;;4966838;28;20200;-85
2022/08/30 02:21:14;;;;;;;10.50;9.60;;;16.40;99.90;;;;;;4959103;28;21156;-84
2022/08/30 02:23:40;;;;;;;10.17;9.27;;;16.40;99.90;;;;;;4953817;28;20947;-84
2022/08/30 02:26:06;;;;;;;10.40;9.50;;;16.40;99.90;;;;;;4973028;28;20580;-84
2022/08/30 02:28:32;;;;;;;9.10;8.30;;;16.40;99.90;;;;;;4966162;28;20460;-85
2022/08/30 02:30:58;;;;;;;10.30;9.40;;;16.40;99.90;;;;;;4961475;28;20929;-85
2022/08/30 02:33:23;;;;;;;10.50;9.60;;;16.40;99.90;;;;;;4962091;28;20224;-85
2022/08/30 02:35:49;;;;;;;11.10;10.10;;;16.40;99.90;;;;;;4976719;28;20567;-85
2022/08/30 02:38:14;;;;;;;11.20;10.20;;;16.40;99.90;;;;;;4961436;28;20584;-85
2022/08/30 02:40:40;;;;;;;11.10;9.87;;;16.50;99.90;;;;;;4967838;28;20185;-84
2022/08/30 02:43:06;;;;;;;10.63;9.73;;;16.50;99.90;;;;;;4969179;28;20204;-85
2022/08/30 02:45:32;;;;;;;10.90;9.80;;;16.40;99.90;;;;;;4976051;28;20268;-85
2022/08/30 02:47:57;;;;;;;10.50;9.50;;;16.30;99.90;;;;;;4976486;28;20308;-84
2022/08/30 02:50:23;;;;;;;11.47;10.37;;;16.20;99.90;;;;;;4967202;28;20444;-85
2022/08/30 02:52:49;;;;;;;10.50;9.70;;;16.20;99.90;;;;;;4962226;28;20719;-85
2022/08/30 02:55:16;;;;;;;12.73;11.63;;;16.30;99.90;;;;;;4977364;28;20449;-85
2022/08/30 02:57:43;;;;;;;13.63;12.23;;;16.30;99.90;;;;;;4965647;28;21001;-85
2022/08/30 03:00:12;;;;;;;12.17;11.17;;;16.40;99.90;;;;;;4974802;28;20495;-85
2022/08/30 03:02:39;;;;;;;13.50;12.20;;;16.40;99.90;;;;;;4958121;28;21018;-85
2022/08/30 03:05:05;;;;;;;12.30;11.20;;;16.40;99.90;;;;;;4953850;28;20441;-86
2022/08/30 03:07:31;;;;;;;12.23;11.00;;;16.40;99.90;;;;;;4964188;28;20547;-86
2022/08/30 03:09:57;;;;;;;11.40;10.40;;;16.40;99.90;;;;;;4953346;28;20451;-86
2022/08/30 03:12:23;;;;;;;11.23;10.33;;;16.30;99.90;;;;;;4959153;28;20222;-84
2022/08/30 03:14:49;;;;;;;11.23;10.27;;;16.30;99.90;;;;;;4969190;28;20186;-84
2022/08/30 03:17:18;;;;;;;11.10;10.10;;;16.20;99.90;;;;;;4969669;28;20441;-84
2022/08/30 03:19:44;;;;;;;10.57;9.57;;;16.10;99.90;;;;;;4967526;28;20182;-85
2022/08/30 03:22:11;;;;;;;11.43;10.33;;;16.10;99.90;;;;;;4963791;28;20457;-84
2022/08/30 03:24:37;;;;;;;11.50;10.30;;;16.00;99.90;;;;;;4960118;28;20441;-84
2022/08/30 03:27:03;;;;;;;10.40;9.40;;;16.00;99.90;;;;;;4959952;28;20464;-85
2022/08/30 03:29:28;;;;;;;11.83;10.73;;;15.90;99.90;;;;;;4969999;28;20447;-85
2022/08/30 03:31:55;;;;;;;10.00;9.10;;;15.90;99.90;;;;;;4966145;28;20578;-85
2022/08/30 03:34:22;;;;;;;11.63;10.50;;;15.90;99.90;;;;;;4973088;28;20194;-85
2022/08/30 03:36:49;;;;;;;10.80;9.90;;;15.80;99.90;;;;;;4980691;28;20460;-85
2022/08/30 03:39:14;;;;;;;11.40;10.40;;;15.80;99.90;;;;;;4963901;28;21030;-85
2022/08/30 03:41:42;;;;;;;11.80;9.60;;;15.80;99.90;;;;;;4972604;28;20658;-85
2022/08/30 03:44:08;;;;;;;10.63;9.73;;;15.90;99.90;;;;;;4981759;28;20273;-84
2022/08/30 03:46:33;;;;;;;11.27;10.17;;;15.90;99.90;;;;;;4978312;28;20432;-85
2022/08/30 03:48:59;;;;;;;9.67;8.87;;;15.80;99.90;;;;;;4981557;28;20626;-85
2022/08/30 03:51:25;;;;;;;10.93;9.83;;;15.80;99.90;;;;;;4963437;28;20195;-84
2022/08/30 03:53:51;;;;;;;10.10;9.30;;;15.70;99.90;;;;;;4963564;28;20573;-85
2022/08/30 03:56:18;;;;;;;11.67;10.23;;;15.70;99.90;;;;;;4964428;28;20587;-85
2022/08/30 03:58:44;;;;;;;10.47;9.43;;;15.60;99.90;;;;;;4963208;28;20448;-86
2022/08/30 04:01:10;;;;;;;13.30;10.50;;;15.60;99.90;;;;;;4979115;28;20876;-85
2022/08/30 04:03:36;;;;;;;10.60;9.60;;;15.60;99.90;;;;;;4967021;28;20452;-86
2022/08/30 04:06:02;;;;;;;10.70;9.67;;;15.60;99.90;;;;;;4964076;28;20795;-86
2022/08/30 04:08:28;;;;;;;11.33;10.23;;;15.60;99.90;;;;;;4967483;28;20480;-87
2022/08/30 04:10:54;;;;;;;11.30;10.30;;;15.60;99.90;;;;;;4964507;28;20795;-87
2022/08/30 04:13:20;;;;;;;10.30;9.40;;;15.60;99.90;;;;;;4970843;28;20474;-86
2022/08/30 04:15:46;;;;;;;12.07;10.97;;;15.50;99.90;;;;;;4969658;28;20448;-86
2022/08/30 04:18:12;;;;;;;10.73;9.63;;;15.50;99.90;;;;;;4969685;28;20827;-86
2022/08/30 04:20:38;;;;;;;11.33;10.33;;;15.60;99.90;;;;;;4978217;28;20182;-86
2022/08/30 04:23:05;;;;;;;11.57;10.47;;;15.50;99.90;;;;;;4974127;28;20186;-86
2022/08/30 04:25:33;;;;;;;11.77;10.67;;;15.40;99.90;;;;;;4977934;28;20190;-86
2022/08/30 04:27:59;;;;;;;12.27;11.17;;;15.40;99.90;;;;;;4958622;28;20870;-86
2022/08/30 04:30:24;;;;;;;12.03;10.83;;;15.40;99.90;;;;;;4953186;28;20502;-86
2022/08/30 04:32:50;;;;;;;11.40;10.30;;;15.40;99.90;;;;;;4954450;28;20488;-85
2022/08/30 04:35:15;;;;;;;11.60;10.50;;;15.40;99.90;;;;;;4979774;28;20547;-86
2022/08/30 04:37:41;;;;;;;12.23;11.13;;;15.30;99.90;;;;;;4969591;28;20196;-86
2022/08/30 04:40:07;;;;;;;13.10;11.80;;;15.30;99.90;;;;;;4966428;28;20626;-84
2022/08/30 04:42:34;;;;;;;11.53;10.50;;;15.20;99.90;;;;;;4968661;28;20198;-87
2022/08/30 04:45:11;;;;;;;11.47;10.47;;;15.20;99.90;;;;;;4979200;28;20472;-87
2022/08/30 04:47:38;;;;;;;12.20;9.67;;;15.30;99.90;;;;;;4972794;28;20518;-83
2022/08/30 04:50:05;;;;;;;11.60;10.57;;;15.40;99.90;;;;;;4981821;28;20445;-84
2022/08/30 04:52:31;;;;;;;11.83;10.60;;;15.50;99.90;;;;;;4965945;28;21078;-85
2022/08/30 04:54:57;;;;;;;12.03;10.20;;;15.60;99.90;;;;;;4957219;28;20448;-85
2022/08/30 04:57:24;;;;;;;11.10;10.10;;;15.70;99.90;;;;;;4972341;28;20190;-85
2022/08/30 04:59:50;;;;;;;11.63;10.53;;;15.80;99.90;;;;;;4958048;28;20448;-85
2022/08/30 05:02:16;;;;;;;11.90;10.50;;;15.80;99.90;;;;;;4963457;28;20444;-85
2022/08/30 05:05:38;;;;;;;12.10;10.90;;;15.90;99.90;;;;;;4965723;28;20272;-85
2022/08/30 05:07:28;;;;;;;10.90;10.00;;;15.90;99.90;;;;;;4969710;28;20756;-85
2022/08/30 05:09:53;;;;;;;10.20;9.33;;;15.90;99.90;;;;;;4969600;28;20441;-86
2022/08/30 05:12:19;;;;;;;11.20;10.20;;;15.90;99.90;;;;;;4965469;28;20558;-83
2022/08/30 05:14:44;;;;;;;13.53;11.07;;;15.80;99.90;;;;;;4977051;28;20252;-85
2022/08/30 05:17:14;;;;;;;16.03;11.20;;;15.70;99.90;;;;;;4969646;28;21555;-87
2022/08/30 05:19:42;;;;;;;11.90;10.90;;;15.80;99.90;;;;;;4976496;28;20196;-86
2022/08/30 05:22:08;;;;;;;12.30;11.20;;;15.70;99.90;;;;;;4970293;28;20459;-87
2022/08/30 05:24:34;;;;;;;13.43;11.17;;;15.80;99.90;;;;;;4971007;28;20448;-86
2022/08/30 05:27:00;;;;;;;12.30;11.10;;;15.90;99.90;;;;;;4958155;28;20450;-85
2022/08/30 05:29:26;;;;;;;11.83;10.83;;;15.90;99.90;;;;;;4958092;28;20464;-85
2022/08/30 05:31:52;;;;;;;11.53;10.43;;;16.00;99.90;;;;;;4956726;28;20219;-86
2022/08/30 05:34:19;;;;;;;11.30;10.40;;;16.10;99.90;;;;;;4966235;28;20263;-86
2022/08/30 05:36:45;;;;;;;12.00;11.00;;;16.10;99.90;;;;;;4998365;28;20533;-86
2022/08/30 05:39:11;;;;;;;12.47;11.37;;;16.20;99.90;;;;;;4968612;28;20459;-86
2022/08/30 05:41:37;;;;;;;13.57;12.20;;;16.40;99.90;;;;;;4964740;28;20194;-86
2022/08/30 05:44:04;;;;;;;13.40;11.67;;;16.50;99.90;;;;;;4968084;28;20437;-86
2022/08/30 05:46:33;;;;;;;12.47;11.37;;;16.70;99.90;;;;;;4968019;28;20193;-86
2022/08/30 05:49:02;;;;;;;11.67;10.67;;;16.70;99.90;;;;;;4977689;28;20444;-85
2022/08/30 05:51:30;;;;;;;13.00;11.90;;;16.90;99.90;;;;;;4982708;28;20479;-87
2022/08/30 05:53:57;;;;;;;12.37;11.20;;;17.00;99.90;;;;;;4975616;28;20483;-86
2022/08/30 05:56:30;;;;;;;11.70;10.63;;;17.10;99.90;;;;;;4965650;28;20449;-86
2022/08/30 05:58:56;;;;;;;14.03;12.83;;;17.20;99.90;;;;;;4966535;28;20795;-86
2022/08/30 06:01:33;;;;;;;13.37;12.17;;;17.40;99.90;;;;;;4965183;28;20452;-86
2022/08/30 06:04:00;;;;;;;13.60;12.40;;;17.40;99.90;;;;;;4968549;28;20868;-86
2022/08/30 06:06:27;;;;;;;11.77;10.77;;;17.50;99.90;;;;;;4973489;28;20483;-86
2022/08/30 06:08:53;;;;;;;12.60;11.40;;;17.50;99.90;;;;;;4966228;28;20460;-86
2022/08/30 06:11:21;;;;;;;12.93;11.77;;;17.60;99.90;;;;;;4965192;28;20437;-86
2022/08/30 06:13:50;;;;;;;13.37;12.07;;;17.70;99.90;;;;;;4981757;28;20491;-86
2022/08/30 06:16:18;;;;;;;12.80;11.50;;;17.90;99.90;;;;;;4967044;28;20440;-87
2022/08/30 06:18:44;;;;;;;12.83;11.53;;;18.00;99.90;;;;;;4974567;28;20503;-86
2022/08/30 06:21:24;;;;;;;12.63;11.43;;;18.00;99.90;;;;;;4980391;28;20436;-87
2022/08/30 06:23:51;;;;;;;12.30;11.20;;;18.00;99.90;;;;;;4969236;28;21147;-87
2022/08/30 06:26:51;;;;;;;12.80;11.47;;;18.10;99.90;;;;;;4980041;28;20498;-92
2022/08/30 06:29:18;;;;;;;11.73;10.77;;;18.30;99.90;;;;;;4966678;28;20437;-86
2022/08/30 06:31:44;;;;;;;13.60;12.20;;;18.20;99.90;;;;;;4965233;28;20888;-86
2022/08/30 06:34:10;;;;;;;12.33;11.23;;;18.00;99.90;;;;;;4962117;28;20491;-86
2022/08/30 06:36:37;;;;;;;12.60;11.40;;;17.90;99.90;;;;;;4985771;28;20449;-88
2022/08/30 06:39:03;;;;;;;12.03;10.90;;;17.80;99.90;;;;;;4965410;28;20221;-86
2022/08/30 06:41:31;;;;;;;12.63;11.43;;;17.80;99.90;;;;;;4976938;28;20642;-86
2022/08/30 06:43:59;;;;;;;12.70;11.50;;;17.90;99.90;;;;;;4968126;28;20444;-86
2022/08/30 06:46:29;;;;;;;12.50;11.40;;;18.00;99.90;;;;;;4964753;28;20445;-86
2022/08/30 06:48:55;;;;;;;13.37;12.13;;;18.30;99.90;;;;;;4975656;28;20447;-87
2022/08/30 06:51:24;;;;;;;12.83;11.53;;;18.40;99.90;;;;;;4982603;28;20457;-86
2022/08/30 06:53:50;;;;;;;15.27;13.63;;;18.50;99.90;;;;;;4974721;28;20507;-86
2022/08/30 06:56:17;;;;;;;13.17;11.97;;;18.60;99.90;;;;;;4984676;28;20976;-86
2022/08/30 06:58:44;;;;;;;12.67;11.47;;;18.60;99.90;;;;;;4964752;28;20524;-86
2022/08/30 07:01:19;;;;;;;12.63;11.33;;;18.70;99.90;;;;;;4963799;28;20489;-86
2022/08/30 07:03:45;;;;;;;12.87;11.77;;;18.90;99.90;;;;;;4966643;28;20539;-86
2022/08/30 07:06:12;;;;;;;12.70;11.50;;;19.00;99.90;;;;;;4969874;28;20436;-86
2022/08/30 07:08:38;;;;;;;12.80;11.70;;;19.10;99.90;;;;;;4967149;28;20193;-86
2022/08/30 07:11:04;;;;;;;13.50;12.20;;;19.10;99.90;;;;;;4969248;28;20484;-86
2022/08/30 07:13:31;;;;;;;13.30;12.00;;;19.20;99.90;;;;;;4988152;28;20225;-86
2022/08/30 07:15:56;;;;;;;13.60;12.40;;;19.40;99.90;;;;;;4985533;28;20444;-86
2022/08/30 07:21:17;;;;;;;13.47;12.17;;;19.50;99.90;;;;;;4990426;28;20250;-86
2022/08/30 07:23:44;;;;;;;12.63;11.47;;;19.50;99.90;;;;;;4981565;28;20524;-85
2022/08/30 07:26:12;;;;;;;13.57;12.27;;;19.60;99.90;;;;;;4982305;28;20481;-86
2022/08/30 07:28:41;;;;;;;11.23;10.33;;;19.80;99.90;;;;;;4964979;28;20556;-86
2022/08/30 07:31:08;;;;;;;11.00;9.73;;;20.00;99.90;;;;;;4964156;28;20448;-86
2022/08/30 07:33:34;;;;;;;11.13;10.03;;;20.20;99.90;;;;;;4964083;28;20614;-86
2022/08/30 07:35:59;;;;;;;9.80;9.03;;;20.30;99.90;;;;;;4963445;28;20449;-86
2022/08/30 07:38:26;;;;;;;9.53;8.70;;;20.50;99.90;;;;;;4971699;28;20205;-86
2022/08/30 07:40:51;;;;;;;9.83;8.50;;;20.80;99.90;;;;;;4987462;28;20244;-85
2022/08/30 07:43:17;;;;;;;9.40;8.60;;;20.90;99.90;;;;;;4967030;28;20444;-86
2022/08/30 07:45:46;;;;;;;10.03;9.10;;;21.10;99.90;;;;;;4966397;28;20197;-86
2022/08/30 07:48:12;;;;;;;9.60;8.70;;;21.20;99.90;;;;;;4970005;28;20268;-86
2022/08/30 07:50:42;;;;;;;9.87;8.93;;;21.20;99.90;;;;;;4978185;28;20539;-85
2022/08/30 07:53:07;;;;;;;11.30;8.90;;;21.40;99.90;;;;;;4978583;28;20217;-86
2022/08/30 07:55:33;;;;;;;12.20;9.47;;;21.50;99.90;;;;;;4962716;28;20460;-85
2022/08/30 07:57:58;;;;;;;10.70;9.90;;;21.60;99.90;;;;;;4962423;28;20240;-86
2022/08/30 08:00:24;;;;;;;10.57;9.10;;;21.60;99.90;;;;;;4961584;28;20589;-86
2022/08/30 08:02:50;;;;;;;9.63;8.93;;;21.60;99.90;;;;;;4962594;28;20264;-85
2022/08/30 08:05:15;;;;;;;9.00;8.10;;;21.70;99.90;;;;;;4962957;28;20197;-85
2022/08/30 08:07:41;;;;;;;9.00;8.20;;;21.80;99.90;;;;;;4988145;28;20533;-86
2022/08/30 08:10:07;;;;;;;11.73;9.73;;;21.90;99.90;;;;;;4970901;28;20555;-85
2022/08/30 08:12:33;;;;;;;10.47;9.57;;;21.90;99.90;;;;;;4966793;28;20225;-85
2022/08/30 08:14:59;;;;;;;9.90;9.07;;;22.10;99.90;;;;;;4970581;28;20827;-85
2022/08/30 08:17:24;;;;;;;10.03;9.03;;;22.20;99.90;;;;;;4982936;28;20719;-85
2022/08/30 08:19:50;;;;;;;10.20;9.30;;;22.40;99.90;;;;;;4995587;28;20209;-86
2022/08/30 08:22:15;;;;;;;10.23;9.40;;;22.40;99.90;;;;;;4982122;28;20185;-85
2022/08/30 08:24:41;;;;;;;9.80;8.90;;;22.60;99.90;;;;;;4973694;28;20205;-86
2022/08/30 08:27:07;;;;;;;9.63;8.60;;;22.90;99.90;;;;;;4966071;28;20452;-86
2022/08/30 08:29:33;;;;;;;9.40;8.60;;;22.80;99.90;;;;;;4967519;28;20501;-85
2022/08/30 08:31:59;;;;;;;10.40;9.50;;;22.80;99.90;;;;;;4966813;28;21652;-85
2022/08/30 08:34:26;;;;;;;9.73;8.80;;;22.70;99.90;;;;;;4967724;28;20349;-86
2022/08/30 08:36:51;;;;;;;9.07;8.37;;;22.80;99.90;;;;;;4980841;28;20278;-85
2022/08/30 08:39:17;;;;;;;10.87;9.73;;;23.00;99.90;;;;;;4983126;28;20488;-86
2022/08/30 08:41:51;;;;;;;9.73;8.80;;;23.00;99.90;;;;;;4979727;28;20185;-86
2022/08/30 08:44:38;;;;;;;8.60;7.80;;;22.90;99.90;;;;;;4985000;28;20184;-86
2022/08/30 08:47:15;;;;;;;8.73;7.93;;;22.90;99.90;;;;;;4979685;28;20441;-86
2022/08/30 08:49:45;;;;;;;9.83;9.00;;;22.90;99.90;;;;;;4999308;28;20436;-86
2022/08/30 08:55:17;;;;;;;9.00;8.20;;;23.30;99.90;;;;;;4980330;28;20444;-86
2022/08/30 08:57:43;;;;;;;9.73;8.73;;;23.60;99.90;;;;;;4997789;28;20977;-86
2022/08/30 09:00:11;;;;;;;8.87;8.03;;;23.70;99.90;;;;;;4980508;28;20437;-86
2022/08/30 09:03:00;;;;;;;9.30;8.40;;;23.80;99.90;;;;;;4998076;28;20182;-86
2022/08/30 09:05:30;;;;;;;9.07;8.27;;;24.20;99.90;;;;;;4981630;28;21254;-85
2022/08/30 09:08:07;;;;;;;9.20;8.03;;;24.30;99.90;;;;;;4980620;28;20472;-86
2022/08/30 09:10:33;;;;;;;8.60;7.80;;;24.50;99.90;;;;;;4983026;28;20432;-86
2022/08/30 09:13:00;;;;;;;9.37;8.67;;;24.60;99.90;;;;;;4979215;28;20530;-86
2022/08/30 09:15:29;;;;;;;9.23;8.33;;;24.70;99.90;;;;;;4981887;28;20436;-86
2022/08/30 09:17:58;;;;;;;8.47;7.37;;;24.90;99.90;;;;;;4999428;28;20480;-86
2022/08/30 09:20:37;;;;;;;9.30;8.70;;;25.00;99.90;;;;;;4977064;28;20441;-86
2022/08/30 09:23:14;;;;;;;7.77;7.10;;;25.00;99.90;;;;;;4991967;28;20448;-86
2022/08/30 09:25:59;;;;;;;8.03;7.43;;;25.20;99.90;;;;;;4976700;28;20441;-86
2022/08/30 09:28:31;;;;;;;7.73;7.00;;;25.20;99.90;;;;;;4979864;28;20476;-85
2022/08/30 09:31:05;;;;;;;8.47;7.80;;;25.30;99.90;;;;;;4978365;28;20833;-85
2022/08/30 09:33:31;;;;;;;9.43;8.63;;;25.50;99.90;;;;;;4978500;28;20487;-85
2022/08/30 09:36:11;;;;;;;8.47;7.67;;;25.60;99.90;;;;;;4982058;28;20523;-85
2022/08/30 09:38:39;;;;;;;8.50;7.70;;;25.70;99.90;;;;;;4995689;28;20223;-86
2022/08/30 09:41:37;;;;;;;8.60;7.90;;;25.80;99.90;;;;;;4980407;28;20449;-86
2022/08/30 09:44:14;;;;;;;8.73;8.00;;;26.00;99.90;;;;;;4977410;28;20529;-85
2022/08/30 09:46:58;;;;;;;8.30;7.77;;;26.00;99.00;;;;;;4966634;28;20451;-86
2022/08/30 09:49:36;;;;;;;10.33;7.90;;;26.20;99.00;;;;;;4981076;28;20459;-86
2022/08/30 09:52:15;;;;;;;8.20;7.50;;;26.40;99.20;;;;;;4980905;28;20502;-86
2022/08/30 09:54:57;;;;;;;7.63;7.03;;;26.50;98.60;;;;;;4978390;28;20445;-86
2022/08/30 09:57:51;;;;;;;8.80;8.10;;;26.80;97.50;;;;;;4979315;28;20476;-86
2022/08/30 10:00:20;;;;;;;8.87;8.00;;;26.90;97.80;;;;;;4980475;28;20757;-86
2022/08/30 10:02:57;;;;;;;7.73;7.13;;;27.00;97.40;;;;;;4979744;28;20878;-86
2022/08/30 10:05:32;;;;;;;7.97;7.37;;;27.00;96.50;;;;;;4977322;28;20551;-86
2022/08/30 10:08:07;;;;;;;7.27;6.67;;;27.20;96.30;;;;;;4978196;28;20444;-86
2022/08/30 10:10:51;;;;;;;8.90;8.30;;;27.30;96.50;;;;;;4974819;28;20998;-86
2022/08/30 10:13:19;;;;;;;7.73;7.13;;;27.50;96.20;;;;;;4994656;28;20835;-86
2022/08/30 10:15:56;;;;;;;8.07;7.37;;;27.50;95.10;;;;;;4982763;28;20421;-87
2022/08/30 10:18:52;;;;;;;7.00;6.60;;;27.70;94.50;;;;;;4993164;28;20444;-86
2022/08/30 10:21:41;;;;;;;7.93;7.30;;;27.80;95.10;;;;;;4980225;28;20503;-86
2022/08/30 10:24:11;;;;;;;8.47;7.77;;;27.90;93.90;;;;;;4980511;28;20471;-87
2022/08/30 10:26:49;;;;;;;7.60;6.90;;;28.10;94.50;;;;;;4977566;28;20441;-85
2022/08/30 10:29:33;;;;;;;7.30;6.73;;;27.90;93.20;;;;;;4981827;28;20456;-86
2022/08/30 10:32:04;;;;;;;7.90;7.30;;;27.90;93.60;;;;;;5006342;28;20429;-86
2022/08/30 10:35:07;;;;;;;7.20;6.70;;;27.90;93.10;;;;;;4994886;28;20880;-86
2022/08/30 10:37:39;;;;;;;6.67;6.20;;;28.00;93.40;;;;;;4962762;28;20453;-86
2022/08/30 10:43:22;;;;;;;6.90;6.37;;;28.50;91.60;;;;;;4985954;28;20545;-86
2022/08/30 10:45:50;;;;;;;6.60;6.10;;;28.60;91.10;;;;;;4973874;28;20544;-86
2022/08/30 10:48:26;;;;;;;7.10;6.60;;;28.70;91.00;;;;;;4969654;28;20458;-86
2022/08/30 10:50:55;;;;;;;7.80;7.20;;;28.90;90.70;;;;;;4979374;28;20448;-86
2022/08/30 10:53:35;;;;;;;8.57;7.67;;;28.80;91.30;;;;;;4978338;28;20468;-86
2022/08/30 10:56:05;;;;;;;6.07;5.57;;;28.80;89.80;;;;;;4980330;28;20436;-86
2022/08/30 10:58:31;;;;;;;6.63;6.13;;;29.00;86.30;;;;;;4981807;28;20512;-86
2022/08/30 11:00:59;;;;;;;6.03;5.53;;;29.60;86.80;;;;;;4981506;28;20524;-86
2022/08/30 11:03:54;;;;;;;5.63;5.27;;;29.50;86.20;;;;;;4981079;28;20577;-86
2022/08/30 11:06:44;;;;;;;6.00;5.50;;;29.30;87.70;;;;;;5010763;28;20416;-86
2022/08/30 11:09:45;;;;;;;6.93;6.40;;;29.60;86.80;;;;;;4982114;28;20432;-86
2022/08/30 11:12:31;;;;;;;6.33;5.73;;;29.70;85.50;;;;;;4980287;28;20465;-87
2022/08/30 11:14:58;;;;;;;6.10;5.70;;;29.70;83.00;;;;;;4980431;28;20433;-86
2022/08/30 11:17:34;;;;;;;6.53;6.03;;;29.10;80.40;;;;;;4980156;28;20907;-86
2022/08/30 11:20:03;;;;;;;7.17;5.23;;;28.80;83.40;;;;;;4994916;28;20531;-85
2022/08/30 11:22:33;;;;;;;5.77;5.37;;;29.10;83.70;;;;;;4981428;28;20449;-86
2022/08/30 11:25:14;;;;;;;6.03;5.60;;;29.50;83.20;;;;;;4981299;28;20441;-86
2022/08/30 11:27:49;;;;;;;6.03;5.60;;;30.10;80.80;;;;;;4978259;28;20448;-86
2022/08/30 11:30:38;;;;;;;6.20;5.70;;;30.30;78.90;;;;;;4977103;28;21059;-86
2022/08/30 11:33:11;;;;;;;6.23;5.73;;;30.10;78.10;;;;;;5008425;28;20477;-86
2022/08/30 11:35:42;;;;;;;6.13;5.73;;;30.40;77.80;;;;;;4991949;28;20571;-86
2022/08/30 11:38:24;;;;;;;7.93;5.63;;;30.70;78.00;;;;;;4995026;28;20639;-86
2022/08/30 11:40:53;;;;;;;5.40;5.00;;;30.90;78.80;;;;;;4977152;28;21152;-86
2022/08/30 11:43:34;;;;;;;6.10;5.50;;;30.50;75.80;;;;;;4983144;28;20472;-87
2022/08/30 11:46:24;;;;;;;5.97;5.57;;;29.80;78.30;;;;;;4985116;28;20947;-86
2022/08/30 11:49:05;;;;;;;5.70;5.30;;;30.00;80.60;;;;;;4981455;28;20440;-86
2022/08/30 11:52:03;;;;;;;5.57;5.17;;;30.30;82.70;;;;;;4977703;28;20437;-86
2022/08/30 11:54:51;;;;;;;5.03;4.73;;;30.50;79.60;;;;;;4977428;28;20764;-86
2022/08/30 11:57:34;;;;;;;6.27;5.77;;;30.00;77.10;;;;;;4982847;28;20456;-86
2022/08/30 12:00:09;;;;;;;5.60;5.20;;;29.30;78.60;;;;;;4982178;28;20445;-86
2022/08/30 12:03:00;;;;;;;5.73;5.33;;;29.30;80.30;;;;;;4983332;28;20454;-86
2022/08/30 12:05:36;;;;;;;6.20;5.80;;;29.60;76.60;;;;;;4980088;28;20448;-86
2022/08/30 12:08:32;;;;;;;5.70;5.30;;;30.30;79.10;;;;;;4982713;28;20795;-86
2022/08/30 12:11:11;;;;;;;5.83;5.37;;;30.60;75.60;;;;;;4982473;28;20440;-86
2022/08/30 12:13:43;;;;;;;5.10;4.80;;;30.30;77.70;;;;;;4998396;28;20483;-86
2022/08/30 12:16:21;;;;;;;6.50;5.40;;;29.90;76.90;;;;;;4982641;28;20499;-86
2022/08/30 12:18:55;;;;;;;5.90;5.57;;;29.80;81.00;;;;;;4981035;28;20451;-86
2022/08/30 12:21:21;;;;;;;6.17;5.77;;;29.70;80.30;;;;;;4981924;28;20861;-85
2022/08/30 12:24:12;;;;;;;6.00;5.50;;;29.70;79.30;;;;;;4984095;28;20692;-86
2022/08/30 12:26:41;;;;;;;7.27;5.53;;;29.70;78.80;;;;;;4981278;28;20289;-86
2022/08/30 12:29:27;;;;;;;6.03;5.60;;;29.50;79.80;;;;;;4981336;28;21088;-86
2022/08/30 12:31:59;;;;;;;6.20;5.80;;;29.10;78.30;;;;;;4984479;28;21813;-86
2022/08/30 12:34:25;;;;;;;5.70;5.30;;;28.90;81.30;;;;;;4982134;28;20518;-86
2022/08/30 12:36:54;;;;;;;5.60;5.20;;;29.00;79.30;;;;;;4978451;28;20424;-86
2022/08/30 12:39:39;;;;;;;5.50;5.10;;;29.10;78.80;;;;;;4982004;28;20962;-86
2022/08/30 12:42:25;;;;;;;5.43;5.00;;;29.20;78.00;;;;;;4978067;28;20523;-86
2022/08/30 12:44:57;;;;;;;5.70;5.30;;;29.20;80.50;;;;;;4998242;28;20527;-86
2022/08/30 12:47:35;;;;;;;5.90;5.50;;;29.30;78.30;;;;;;4982032;28;20437;-86
2022/08/30 12:50:02;;;;;;;6.00;5.57;;;29.00;79.10;;;;;;4981013;28;20601;-86
2022/08/30 12:52:28;;;;;;;6.53;5.83;;;28.90;75.70;;;;;;4982154;28;20464;-86
2022/08/30 12:55:03;;;;;;;5.77;5.37;;;28.80;75.80;;;;;;4977586;28;20800;-86
2022/08/30 12:57:53;;;;;;;6.13;5.63;;;29.00;79.70;;;;;;4971648;28;21337;-86
2022/08/30 13:00:31;;;;;;;5.93;5.53;;;28.90;79.70;;;;;;4984700;28;20463;-86
2022/08/30 13:03:00;;;;;;;6.07;5.67;;;29.00;82.30;;;;;;4979775;28;21206;-86
2022/08/30 13:05:37;;;;;;;6.17;5.67;;;29.10;81.70;;;;;;5000887;28;20506;-86